»·PEaware :: WAT540 PAKT-PAWG

WAT540 :: PAKT-PAWG

FLIGHT INFORMATION

Flight Status: Arrived
Operator:
Walker Air Transport
More flights by this operator :: More flights under this callsign
Pilot: Michael R. (33632)
Aircraft: PIPER PA-30 TWIN COMANCHE
(PA30)
More flights by this aircraft type
Origin: PAKT Ketchikan Intl
United States
Destination: PAWG Wrangell
United States
More flights between these airports :: More routes between these airports
Route:
File this flight plan on PilotEdge
Remarks:
Altitude:
(Current/Filed)
4,500ft
Speed:
(Current/Filed)
160kts
Departed: 19-Feb-21 01:26 PM
Arrived: 19-Feb-21 01:59 PM
Distance/Time
Traveled:
71nm/0:33
Distance/Time
To Go:
Arrived

Flight Plot

Page will automatically refresh every two minutes.

Flight plan parsing failed; only flown route is shown


Map Options




Map Legend


Flown Route
Filed Route
Departure Airport
Arrival Airport
Navaid (VOR, NDB)
Fix

Horizontal Profiles

Position Reports

Time Latitude Longitude Heading Altitude Ground
Speed
19-Feb-21 12:55 55.353467 -131.704944 93 89ft 0kts
19-Feb-21 12:56 55.353467 -131.704944 93 89ft 0kts
19-Feb-21 12:57 55.353467 -131.704944 93 89ft 0kts
19-Feb-21 12:58 55.353467 -131.704944 93 89ft 0kts
19-Feb-21 12:59 55.353467 -131.704944 93 89ft 0kts
19-Feb-21 13:00 55.353467 -131.704944 93 89ft 0kts
19-Feb-21 13:01 55.353467 -131.704944 93 89ft 0kts
19-Feb-21 13:02 55.353467 -131.704944 93 89ft 0kts
19-Feb-21 13:04 55.353467 -131.704944 93 89ft 0kts
19-Feb-21 13:05 55.353467 -131.704944 93 89ft 0kts
19-Feb-21 13:06 55.353467 -131.704944 93 89ft 0kts
19-Feb-21 13:07 55.353467 -131.704944 93 89ft 0kts
19-Feb-21 13:08 55.353467 -131.704944 93 89ft 0kts
19-Feb-21 13:09 55.353467 -131.704944 93 89ft 0kts
19-Feb-21 13:10 55.353467 -131.704944 93 89ft 0kts
19-Feb-21 13:11 55.353467 -131.704944 93 89ft 0kts
19-Feb-21 13:12 55.353467 -131.704944 93 89ft 0kts
19-Feb-21 13:13 55.353467 -131.704944 93 89ft 0kts
19-Feb-21 13:14 55.353467 -131.704944 93 89ft 0kts
19-Feb-21 13:15 55.353467 -131.704944 93 89ft 0kts
19-Feb-21 13:16 55.353467 -131.704944 93 89ft 0kts
19-Feb-21 13:17 55.353467 -131.704944 93 89ft 0kts
19-Feb-21 13:18 55.353467 -131.704944 93 89ft 0kts
19-Feb-21 13:19 55.353161 -131.704112 136 88ft 0kts
19-Feb-21 13:20 55.353772 -131.706219 313 89ft 17kts
19-Feb-21 13:21 55.353430 -131.707107 136 89ft 14kts
19-Feb-21 13:22 55.349366 -131.700358 155 88ft 15kts
19-Feb-21 13:23 55.348861 -131.700356 210 89ft 0kts
19-Feb-21 13:24 55.348861 -131.700355 210 89ft 0kts
19-Feb-21 13:24 55.347228 -131.699088 132 88ft 16kts
19-Feb-21 13:26 55.358410 -131.717655 320 435ft 100kts
19-Feb-21 13:27 55.379776 -131.751437 328 1482ft 108kts
19-Feb-21 13:28 55.407123 -131.774985 341 2552ft 112kts
19-Feb-21 13:28 55.432577 -131.785356 354 3392ft 116kts
19-Feb-21 13:30 55.470784 -131.794124 347 4343ft 129kts
19-Feb-21 13:31 55.508496 -131.808606 347 4508ft 151kts
19-Feb-21 13:31 55.543864 -131.822850 345 4505ft 159kts
19-Feb-21 13:33 55.594269 -131.845545 345 4505ft 161kts
19-Feb-21 13:34 55.637888 -131.865204 345 4504ft 162kts
19-Feb-21 13:34 55.674294 -131.881619 345 4504ft 162kts
19-Feb-21 13:36 55.725139 -131.904556 345 4504ft 162kts
19-Feb-21 13:36 55.762109 -131.916191 350 4504ft 162kts
19-Feb-21 13:37 55.806604 -131.929069 350 4505ft 162kts
19-Feb-21 13:39 55.858608 -131.940920 353 4504ft 162kts
19-Feb-21 13:39 55.895938 -131.948176 353 4504ft 162kts
19-Feb-21 13:41 55.948142 -131.958318 353 4504ft 162kts
19-Feb-21 13:41 55.985338 -131.965541 353 4504ft 162kts
19-Feb-21 13:42 56.030051 -131.974224 353 4504ft 162kts
19-Feb-21 13:43 56.075777 -131.992894 344 4146ft 175kts
19-Feb-21 13:44 56.124992 -132.010713 3 3470ft 184kts
19-Feb-21 13:45 56.169362 -131.976099 51 2902ft 184kts
19-Feb-21 13:46 56.204577 -131.919227 352 2500ft 177kts
19-Feb-21 13:47 56.248228 -131.952842 334 2346ft 168kts
19-Feb-21 13:48 56.290476 -131.981527 342 1976ft 161kts
19-Feb-21 13:49 56.334008 -132.000879 341 1730ft 160kts
19-Feb-21 13:50 56.364339 -132.056958 297 1458ft 148kts
19-Feb-21 13:51 56.371984 -132.127006 289 1432ft 148kts
19-Feb-21 13:52 56.400513 -132.183569 327 1493ft 156kts
19-Feb-21 13:53 56.432476 -132.219480 322 1335ft 115kts
19-Feb-21 13:54 56.453305 -132.256675 305 1089ft 103kts
19-Feb-21 13:55 56.463193 -132.298106 287 1008ft 87kts
19-Feb-21 13:56 56.473170 -132.337402 301 348ft 83kts
19-Feb-21 13:57 56.484212 -132.369587 302 44ft 46kts
19-Feb-21 13:58 56.485077 -132.378648 223 43ft 5kts
19-Feb-21 13:59 56.485012 -132.378739 210 44ft 0kts

Navigation Log

Ident Type
Flight plan parsing failed, navigation log unavailable